| Date | Time | Temp. (oF) | Dew Point (oF) | Rel. Hum. (%) | Press. (in.) | Wind Dir. | Wind Speed (mph) | Hourly Rainfall (in.) |
|
|---|---|---|---|---|---|---|---|---|---|
| 1 | 12/13 | 00:00 | 43 | 42 | 100 | 30.26 | NNE | 3 | 0.00 |
| 2 | 12/12 | 23:00 | 43 | 42 | 100 | 30.28 | ESE | 2 | 0.00 |
| 3 | 12/12 | 22:00 | 44 | 43 | 99 | 30.32 | NE | 3 | 0.01 |
| 4 | 12/12 | 21:00 | 44 | 42 | 96 | 30.34 | E | 2 | 0.00 |
| 5 | 12/12 | 20:00 | 45 | 42 | 90 | 30.36 | NE | 5 | 0.00 |
| 6 | 12/12 | 19:00 | 46 | 42 | 87 | 30.36 | ESE | 3 | 0.00 |
| 7 | 12/12 | 18:00 | 47 | 42 | 84 | 30.36 | E | 1 | 0.00 |
| 8 | 12/12 | 17:00 | 47 | 42 | 84 | 30.36 | NE | 3 | 0.00 |
| 9 | 12/12 | 16:00 | 48 | 42 | 82 | 30.37 | E | 5 | 0.00 |
| 10 | 12/12 | 15:00 | 48 | 42 | 81 | 30.37 | NNE | 4 | 0.00 |
| 11 | 12/12 | 14:00 | 47 | 42 | 83 | 30.39 | E | 3 | 0.00 |
| 12 | 12/12 | 13:00 | 47 | 42 | 83 | 30.41 | ENE | 5 | 0.00 |
| 13 | 12/12 | 12:00 | 46 | 41 | 84 | 30.47 | NE | 1 | 0.00 |
| 14 | 12/12 | 11:00 | 43 | 39 | 87 | 30.48 | NE | 5 | 0.00 |
| 15 | 12/12 | 10:00 | 38 | 37 | 100 | 30.50 | ENE | 3 | 0.00 |
| 16 | 12/12 | 09:00 | 31 | 31 | 100 | 30.50 | S | 1 | 0.00 |
| 17 | 12/12 | 08:00 | 27 | 27 | 100 | 30.49 | NNW | 0 | 0.00 |
| 18 | 12/12 | 07:00 | 27 | 27 | 100 | 30.49 | N | 0 | 0.00 |
| 19 | 12/12 | 06:00 | 27 | 27 | 100 | 30.47 | N | 0 | 0.00 |
| 20 | 12/12 | 05:00 | 28 | 27 | 100 | 30.47 | SSE | 2 | 0.00 |
| 21 | 12/12 | 04:00 | 29 | 28 | 100 | 30.45 | NNE | 0 | 0.00 |
| 22 | 12/12 | 03:00 | 30 | 30 | 100 | 30.45 | NNE | 0 | 0.00 |
| 23 | 12/12 | 02:00 | 32 | 31 | 99 | 30.44 | NNE | 0 | 0.00 |
| 24 | 12/12 | 01:00 | 33 | 32 | 98 | 30.42 | NNW | 1 | 0.00 |